sensor_id;sensor_type;location;lat;lon;timestamp;temperature;humidity
12438;DHT22;6283;51.330;12.374;2022-12-05T00:03:44;4.60;1.00
12438;DHT22;6283;51.330;12.374;2022-12-05T00:06:10;4.70;1.00
12438;DHT22;6283;51.330;12.374;2022-12-05T00:08:36;4.50;1.00
12438;DHT22;6283;51.330;12.374;2022-12-05T00:11:02;4.50;1.00
12438;DHT22;6283;51.330;12.374;2022-12-05T00:13:27;4.30;1.00
12438;DHT22;6283;51.330;12.374;2022-12-05T00:15:53;4.60;1.00
12438;DHT22;6283;51.330;12.374;2022-12-05T00:18:19;4.70;1.00
12438;DHT22;6283;51.330;12.374;2022-12-05T00:20:45;4.40;1.00
12438;DHT22;6283;51.330;12.374;2022-12-05T00:23:11;4.70;1.00
12438;DHT22;6283;51.330;12.374;2022-12-05T00:25:37;4.40;1.00
12438;DHT22;6283;51.330;12.374;2022-12-05T00:28:03;4.70;1.00
12438;DHT22;6283;51.330;12.374;2022-12-05T00:30:29;4.60;1.00
12438;DHT22;6283;51.330;12.374;2022-12-05T00:32:55;4.60;1.00
12438;DHT22;6283;51.330;12.374;2022-12-05T00:35:20;4.50;1.00
12438;DHT22;6283;51.330;12.374;2022-12-05T00:37:46;4.50;1.00
12438;DHT22;6283;51.330;12.374;2022-12-05T00:40:12;4.40;1.00
12438;DHT22;6283;51.330;12.374;2022-12-05T00:42:37;4.30;1.00
12438;DHT22;6283;51.330;12.374;2022-12-05T00:45:04;4.70;1.00
12438;DHT22;6283;51.330;12.374;2022-12-05T00:47:29;4.80;1.00
12438;DHT22;6283;51.330;12.374;2022-12-05T00:49:55;4.70;1.00
12438;DHT22;6283;51.330;12.374;2022-12-05T00:52:20;4.70;1.00
12438;DHT22;6283;51.330;12.374;2022-12-05T00:54:46;4.60;1.00
12438;DHT22;6283;51.330;12.374;2022-12-05T00:57:12;4.60;1.00
12438;DHT22;6283;51.330;12.374;2022-12-05T00:59:39;4.90;1.00
12438;DHT22;6283;51.330;12.374;2022-12-05T01:02:04;4.80;1.00
12438;DHT22;6283;51.330;12.374;2022-12-05T01:04:30;4.80;1.00
12438;DHT22;6283;51.330;12.374;2022-12-05T01:06:57;4.60;1.00
12438;DHT22;6283;51.330;12.374;2022-12-05T01:09:23;4.70;1.00
12438;DHT22;6283;51.330;12.374;2022-12-05T01:11:50;4.60;1.00
12438;DHT22;6283;51.330;12.374;2022-12-05T01:14:17;4.70;1.00
12438;DHT22;6283;51.330;12.374;2022-12-05T01:16:46;4.70;1.00
12438;DHT22;6283;51.330;12.374;2022-12-05T01:19:15;4.60;1.00
12438;DHT22;6283;51.330;12.374;2022-12-05T01:21:41;4.80;1.00
12438;DHT22;6283;51.330;12.374;2022-12-05T01:24:08;4.90;1.00
12438;DHT22;6283;51.330;12.374;2022-12-05T01:26:34;4.70;1.00
12438;DHT22;6283;51.330;12.374;2022-12-05T01:29:00;4.90;1.00
12438;DHT22;6283;51.330;12.374;2022-12-05T01:31:30;4.90;1.00
12438;DHT22;6283;51.330;12.374;2022-12-05T01:33:58;4.90;1.00
12438;DHT22;6283;51.330;12.374;2022-12-05T01:36:24;4.90;1.00
12438;DHT22;6283;51.330;12.374;2022-12-05T01:38:51;4.90;1.00
12438;DHT22;6283;51.330;12.374;2022-12-05T01:41:20;4.90;1.00
12438;DHT22;6283;51.330;12.374;2022-12-05T01:46:24;5.00;1.00
12438;DHT22;6283;51.330;12.374;2022-12-05T01:48:51;5.00;1.00
12438;DHT22;6283;51.330;12.374;2022-12-05T01:51:18;5.00;1.00
12438;DHT22;6283;51.330;12.374;2022-12-05T01:53:44;5.20;1.00
12438;DHT22;6283;51.330;12.374;2022-12-05T01:56:11;5.00;1.00
12438;DHT22;6283;51.330;12.374;2022-12-05T01:58:39;5.00;1.00
12438;DHT22;6283;51.330;12.374;2022-12-05T02:01:06;5.00;1.00
12438;DHT22;6283;51.330;12.374;2022-12-05T02:03:32;5.00;1.00
12438;DHT22;6283;51.330;12.374;2022-12-05T02:06:00;5.10;1.00
12438;DHT22;6283;51.330;12.374;2022-12-05T02:08:27;5.10;1.00
12438;DHT22;6283;51.330;12.374;2022-12-05T02:10:54;5.20;1.00
12438;DHT22;6283;51.330;12.374;2022-12-05T02:13:33;5.10;1.00
12438;DHT22;6283;51.330;12.374;2022-12-05T02:16:33;5.10;1.00
12438;DHT22;6283;51.330;12.374;2022-12-05T02:30:37;4.90;1.00
12438;DHT22;6283;51.330;12.374;2022-12-05T02:43:46;5.00;1.00
12438;DHT22;6283;51.330;12.374;2022-12-05T02:46:20;5.00;1.00
12438;DHT22;6283;51.330;12.374;2022-12-05T02:48:47;5.20;1.00
12438;DHT22;6283;51.330;12.374;2022-12-05T02:51:19;5.40;1.00
12438;DHT22;6283;51.330;12.374;2022-12-05T02:53:47;5.40;1.00
12438;DHT22;6283;51.330;12.374;2022-12-05T02:56:14;5.40;1.00
12438;DHT22;6283;51.330;12.374;2022-12-05T02:58:49;5.40;1.00
12438;DHT22;6283;51.330;12.374;2022-12-05T03:01:18;5.40;1.00
12438;DHT22;6283;51.330;12.374;2022-12-05T03:03:44;5.40;1.00
12438;DHT22;6283;51.330;12.374;2022-12-05T03:06:15;5.40;1.00
12438;DHT22;6283;51.330;12.374;2022-12-05T03:08:52;5.40;1.00
12438;DHT22;6283;51.330;12.374;2022-12-05T03:11:18;5.50;1.00
12438;DHT22;6283;51.330;12.374;2022-12-05T03:13:51;5.40;1.00
12438;DHT22;6283;51.330;12.374;2022-12-05T03:16:38;5.50;1.00
12438;DHT22;6283;51.330;12.374;2022-12-05T03:19:12;5.60;1.00
12438;DHT22;6283;51.330;12.374;2022-12-05T03:21:45;5.50;1.00
12438;DHT22;6283;51.330;12.374;2022-12-05T03:24:13;5.50;1.00
12438;DHT22;6283;51.330;12.374;2022-12-05T03:34:29;5.60;1.00
12438;DHT22;6283;51.330;12.374;2022-12-05T03:36:57;5.50;1.00
12438;DHT22;6283;51.330;12.374;2022-12-05T03:39:31;5.40;1.00
12438;DHT22;6283;51.330;12.374;2022-12-05T03:44:51;5.60;1.00
12438;DHT22;6283;51.330;12.374;2022-12-05T03:49:54;5.70;1.00
12438;DHT22;6283;51.330;12.374;2022-12-05T03:52:37;5.70;1.00
12438;DHT22;6283;51.330;12.374;2022-12-05T03:55:07;5.70;1.00
12438;DHT22;6283;51.330;12.374;2022-12-05T03:57:45;5.30;1.00
12438;DHT22;6283;51.330;12.374;2022-12-05T04:00:18;5.80;1.00
12438;DHT22;6283;51.330;12.374;2022-12-05T04:02:54;5.60;1.00
12438;DHT22;6283;51.330;12.374;2022-12-05T04:05:33;5.70;1.00
12438;DHT22;6283;51.330;12.374;2022-12-05T04:08:05;5.60;1.00
12438;DHT22;6283;51.330;12.374;2022-12-05T04:10:33;5.80;1.00
12438;DHT22;6283;51.330;12.374;2022-12-05T04:13:17;5.80;1.00
12438;DHT22;6283;51.330;12.374;2022-12-05T04:15:52;5.60;1.00
12438;DHT22;6283;51.330;12.374;2022-12-05T04:18:42;5.80;1.00
12438;DHT22;6283;51.330;12.374;2022-12-05T04:21:09;5.40;1.00
12438;DHT22;6283;51.330;12.374;2022-12-05T04:23:54;5.60;1.00
12438;DHT22;6283;51.330;12.374;2022-12-05T04:26:44;5.80;1.00
12438;DHT22;6283;51.330;12.374;2022-12-05T04:29:18;5.50;1.00
12438;DHT22;6283;51.330;12.374;2022-12-05T04:31:51;5.70;1.00
12438;DHT22;6283;51.330;12.374;2022-12-05T04:34:21;5.80;1.00
12438;DHT22;6283;51.330;12.374;2022-12-05T04:37:16;5.50;1.00
12438;DHT22;6283;51.330;12.374;2022-12-05T04:39:50;5.80;1.00
12438;DHT22;6283;51.330;12.374;2022-12-05T04:42:19;5.50;1.00
12438;DHT22;6283;51.330;12.374;2022-12-05T04:45:06;5.70;1.00
12438;DHT22;6283;51.330;12.374;2022-12-05T04:47:38;5.50;1.00
12438;DHT22;6283;51.330;12.374;2022-12-05T04:50:07;5.70;1.00
12438;DHT22;6283;51.330;12.374;2022-12-05T04:52:35;5.60;1.00
12438;DHT22;6283;51.330;12.374;2022-12-05T04:55:11;5.80;1.00
12438;DHT22;6283;51.330;12.374;2022-12-05T04:58:22;5.80;1.00
12438;DHT22;6283;51.330;12.374;2022-12-05T05:03:44;5.80;1.00
12438;DHT22;6283;51.330;12.374;2022-12-05T05:06:12;5.70;1.00
12438;DHT22;6283;51.330;12.374;2022-12-05T05:08:50;5.60;1.00
12438;DHT22;6283;51.330;12.374;2022-12-05T05:13:47;5.70;1.00
12438;DHT22;6283;51.330;12.374;2022-12-05T05:16:24;5.60;1.00
12438;DHT22;6283;51.330;12.374;2022-12-05T05:18:50;5.60;1.00
12438;DHT22;6283;51.330;12.374;2022-12-05T05:23:48;5.70;1.00
12438;DHT22;6283;51.330;12.374;2022-12-05T05:26:15;5.60;1.00
12438;DHT22;6283;51.330;12.374;2022-12-05T05:28:41;5.80;1.00
12438;DHT22;6283;51.330;12.374;2022-12-05T05:31:07;5.90;1.00
12438;DHT22;6283;51.330;12.374;2022-12-05T05:33:35;5.80;1.00
12438;DHT22;6283;51.330;12.374;2022-12-05T05:36:06;5.80;1.00
12438;DHT22;6283;51.330;12.374;2022-12-05T05:38:37;5.90;1.00
12438;DHT22;6283;51.330;12.374;2022-12-05T05:41:10;5.80;1.00
12438;DHT22;6283;51.330;12.374;2022-12-05T05:43:36;5.90;1.00
12438;DHT22;6283;51.330;12.374;2022-12-05T05:46:02;5.70;1.00
12438;DHT22;6283;51.330;12.374;2022-12-05T05:48:29;5.80;1.00
12438;DHT22;6283;51.330;12.374;2022-12-05T05:50:57;5.80;1.00
12438;DHT22;6283;51.330;12.374;2022-12-05T05:53:22;5.90;1.00
12438;DHT22;6283;51.330;12.374;2022-12-05T05:55:48;5.70;1.00
12438;DHT22;6283;51.330;12.374;2022-12-05T05:58:13;5.60;1.00
12438;DHT22;6283;51.330;12.374;2022-12-05T06:00:39;5.80;1.00
12438;DHT22;6283;51.330;12.374;2022-12-05T06:03:05;5.80;1.00
12438;DHT22;6283;51.330;12.374;2022-12-05T06:05:30;5.70;1.00
12438;DHT22;6283;51.330;12.374;2022-12-05T06:07:56;5.70;1.00
12438;DHT22;6283;51.330;12.374;2022-12-05T06:10:21;5.70;1.00
12438;DHT22;6283;51.330;12.374;2022-12-05T06:12:47;5.70;1.00
12438;DHT22;6283;51.330;12.374;2022-12-05T06:15:13;5.70;1.00
12438;DHT22;6283;51.330;12.374;2022-12-05T06:17:38;5.70;1.00
12438;DHT22;6283;51.330;12.374;2022-12-05T06:20:05;5.30;1.00
12438;DHT22;6283;51.330;12.374;2022-12-05T06:22:31;5.30;1.00
12438;DHT22;6283;51.330;12.374;2022-12-05T06:24:57;5.10;1.00
12438;DHT22;6283;51.330;12.374;2022-12-05T06:27:23;5.10;1.00
12438;DHT22;6283;51.330;12.374;2022-12-05T06:29:48;5.10;1.00
12438;DHT22;6283;51.330;12.374;2022-12-05T06:32:15;5.10;1.00
12438;DHT22;6283;51.330;12.374;2022-12-05T06:34:40;5.00;1.00
12438;DHT22;6283;51.330;12.374;2022-12-05T06:37:06;5.10;1.00
12438;DHT22;6283;51.330;12.374;2022-12-05T06:39:32;5.00;1.00
12438;DHT22;6283;51.330;12.374;2022-12-05T06:41:57;5.00;1.00
12438;DHT22;6283;51.330;12.374;2022-12-05T06:44:23;5.10;1.00
12438;DHT22;6283;51.330;12.374;2022-12-05T06:46:52;5.00;1.00
12438;DHT22;6283;51.330;12.374;2022-12-05T06:49:18;4.90;1.00
12438;DHT22;6283;51.330;12.374;2022-12-05T06:51:43;4.90;1.00
12438;DHT22;6283;51.330;12.374;2022-12-05T06:54:11;4.90;1.00
12438;DHT22;6283;51.330;12.374;2022-12-05T06:56:37;4.90;1.00
12438;DHT22;6283;51.330;12.374;2022-12-05T06:59:02;4.70;1.00
12438;DHT22;6283;51.330;12.374;2022-12-05T07:01:28;5.00;1.00
12438;DHT22;6283;51.330;12.374;2022-12-05T07:04:04;4.90;1.00
12438;DHT22;6283;51.330;12.374;2022-12-05T07:06:30;5.00;1.00
12438;DHT22;6283;51.330;12.374;2022-12-05T07:08:55;5.10;1.00
12438;DHT22;6283;51.330;12.374;2022-12-05T07:11:21;5.00;1.00
12438;DHT22;6283;51.330;12.374;2022-12-05T07:13:47;5.00;1.00
12438;DHT22;6283;51.330;12.374;2022-12-05T07:16:12;5.00;1.00
12438;DHT22;6283;51.330;12.374;2022-12-05T07:18:38;5.20;1.00
12438;DHT22;6283;51.330;12.374;2022-12-05T07:21:06;5.10;1.00
12438;DHT22;6283;51.330;12.374;2022-12-05T07:23:32;5.20;1.00
12438;DHT22;6283;51.330;12.374;2022-12-05T07:25:58;5.00;1.00
12438;DHT22;6283;51.330;12.374;2022-12-05T07:28:24;5.10;1.00
12438;DHT22;6283;51.330;12.374;2022-12-05T07:31:01;5.30;1.00
12438;DHT22;6283;51.330;12.374;2022-12-05T07:33:27;5.10;1.00
12438;DHT22;6283;51.330;12.374;2022-12-05T07:35:58;5.30;1.00
12438;DHT22;6283;51.330;12.374;2022-12-05T07:38:24;5.20;1.00
12438;DHT22;6283;51.330;12.374;2022-12-05T07:40:50;5.20;1.00
12438;DHT22;6283;51.330;12.374;2022-12-05T07:43:16;5.20;1.00
12438;DHT22;6283;51.330;12.374;2022-12-05T07:45:41;5.00;1.00
12438;DHT22;6283;51.330;12.374;2022-12-05T07:48:07;5.20;1.00
12438;DHT22;6283;51.330;12.374;2022-12-05T07:50:32;5.20;1.00
12438;DHT22;6283;51.330;12.374;2022-12-05T07:52:58;5.10;1.00
12438;DHT22;6283;51.330;12.374;2022-12-05T07:55:24;5.20;1.00
12438;DHT22;6283;51.330;12.374;2022-12-05T07:57:49;5.10;1.00
12438;DHT22;6283;51.330;12.374;2022-12-05T08:00:15;5.20;1.00
12438;DHT22;6283;51.330;12.374;2022-12-05T08:02:41;4.80;1.00
12438;DHT22;6283;51.330;12.374;2022-12-05T08:05:07;5.10;1.00
12438;DHT22;6283;51.330;12.374;2022-12-05T08:07:33;5.10;1.00
12438;DHT22;6283;51.330;12.374;2022-12-05T08:09:58;4.90;1.00
12438;DHT22;6283;51.330;12.374;2022-12-05T08:12:24;4.90;1.00
12438;DHT22;6283;51.330;12.374;2022-12-05T08:14:49;4.90;1.00
12438;DHT22;6283;51.330;12.374;2022-12-05T08:17:15;4.90;1.00
12438;DHT22;6283;51.330;12.374;2022-12-05T08:19:40;4.90;1.00
12438;DHT22;6283;51.330;12.374;2022-12-05T08:22:06;4.90;1.00
12438;DHT22;6283;51.330;12.374;2022-12-05T08:24:32;4.80;1.00
12438;DHT22;6283;51.330;12.374;2022-12-05T08:26:57;4.90;1.00
12438;DHT22;6283;51.330;12.374;2022-12-05T08:29:23;4.90;1.00
12438;DHT22;6283;51.330;12.374;2022-12-05T08:31:50;4.60;1.00
12438;DHT22;6283;51.330;12.374;2022-12-05T08:34:17;4.90;1.00
12438;DHT22;6283;51.330;12.374;2022-12-05T08:36:43;4.70;1.00
12438;DHT22;6283;51.330;12.374;2022-12-05T08:39:14;4.60;1.00
12438;DHT22;6283;51.330;12.374;2022-12-05T08:41:41;4.60;1.00
12438;DHT22;6283;51.330;12.374;2022-12-05T08:44:07;4.70;1.00
12438;DHT22;6283;51.330;12.374;2022-12-05T08:46:36;4.60;1.00
12438;DHT22;6283;51.330;12.374;2022-12-05T08:49:04;4.90;1.00
12438;DHT22;6283;51.330;12.374;2022-12-05T08:51:30;4.90;1.00
12438;DHT22;6283;51.330;12.374;2022-12-05T08:53:55;4.80;1.00
12438;DHT22;6283;51.330;12.374;2022-12-05T08:56:21;4.80;1.00
12438;DHT22;6283;51.330;12.374;2022-12-05T08:58:47;4.70;1.00
12438;DHT22;6283;51.330;12.374;2022-12-05T09:01:15;4.80;1.00
12438;DHT22;6283;51.330;12.374;2022-12-05T09:03:41;4.50;1.00
12438;DHT22;6283;51.330;12.374;2022-12-05T09:08:37;4.70;1.00
12438;DHT22;6283;51.330;12.374;2022-12-05T09:11:25;4.80;1.00
12438;DHT22;6283;51.330;12.374;2022-12-05T09:13:52;4.40;1.00
12438;DHT22;6283;51.330;12.374;2022-12-05T09:16:24;4.40;1.00
12438;DHT22;6283;51.330;12.374;2022-12-05T09:18:50;4.50;1.00
12438;DHT22;6283;51.330;12.374;2022-12-05T09:21:19;4.50;1.00
12438;DHT22;6283;51.330;12.374;2022-12-05T09:23:46;4.20;1.00
12438;DHT22;6283;51.330;12.374;2022-12-05T09:26:14;4.20;1.00
12438;DHT22;6283;51.330;12.374;2022-12-05T09:28:41;4.40;1.00
12438;DHT22;6283;51.330;12.374;2022-12-05T09:31:14;4.40;1.00
12438;DHT22;6283;51.330;12.374;2022-12-05T09:33:40;4.20;1.00
12438;DHT22;6283;51.330;12.374;2022-12-05T09:36:21;4.10;1.00
12438;DHT22;6283;51.330;12.374;2022-12-05T09:38:48;4.20;1.00
12438;DHT22;6283;51.330;12.374;2022-12-05T09:41:22;4.20;1.00
12438;DHT22;6283;51.330;12.374;2022-12-05T09:52:38;4.40;1.00
12438;DHT22;6283;51.330;12.374;2022-12-05T09:55:16;4.40;1.00
12438;DHT22;6283;51.330;12.374;2022-12-05T09:58:20;4.40;1.00
12438;DHT22;6283;51.330;12.374;2022-12-05T10:00:38;4.40;1.00
12438;DHT22;6283;51.330;12.374;2022-12-05T10:06:24;4.40;1.00
12438;DHT22;6283;51.330;12.374;2022-12-05T10:17:49;4.10;1.00
12438;DHT22;6283;51.330;12.374;2022-12-05T10:20:20;4.00;1.00
12438;DHT22;6283;51.330;12.374;2022-12-05T10:23:03;4.50;1.00
12438;DHT22;6283;51.330;12.374;2022-12-05T10:25:31;4.30;1.00
12438;DHT22;6283;51.330;12.374;2022-12-05T10:28:00;4.60;1.00
12438;DHT22;6283;51.330;12.374;2022-12-05T10:30:32;4.50;1.00
12438;DHT22;6283;51.330;12.374;2022-12-05T10:33:14;4.50;1.00
12438;DHT22;6283;51.330;12.374;2022-12-05T10:35:43;4.50;1.00
12438;DHT22;6283;51.330;12.374;2022-12-05T10:38:24;4.30;1.00
12438;DHT22;6283;51.330;12.374;2022-12-05T10:40:54;4.60;1.00
12438;DHT22;6283;51.330;12.374;2022-12-05T10:43:28;4.40;1.00
12438;DHT22;6283;51.330;12.374;2022-12-05T10:45:55;4.50;1.00
12438;DHT22;6283;51.330;12.374;2022-12-05T10:48:21;4.20;1.00
12438;DHT22;6283;51.330;12.374;2022-12-05T10:50:49;4.30;1.00
12438;DHT22;6283;51.330;12.374;2022-12-05T10:55:48;4.40;1.00
12438;DHT22;6283;51.330;12.374;2022-12-05T10:58:27;4.30;1.00
12438;DHT22;6283;51.330;12.374;2022-12-05T11:01:13;4.40;1.00
12438;DHT22;6283;51.330;12.374;2022-12-05T11:03:41;4.60;1.00
12438;DHT22;6283;51.330;12.374;2022-12-05T11:06:33;4.40;1.00
12438;DHT22;6283;51.330;12.374;2022-12-05T11:09:13;4.60;1.00
12438;DHT22;6283;51.330;12.374;2022-12-05T11:11:41;4.40;1.00
12438;DHT22;6283;51.330;12.374;2022-12-05T11:14:24;4.30;1.00
12438;DHT22;6283;51.330;12.374;2022-12-05T11:16:58;4.60;1.00
12438;DHT22;6283;51.330;12.374;2022-12-05T11:19:34;4.50;1.00
12438;DHT22;6283;51.330;12.374;2022-12-05T11:22:00;4.30;1.00
12438;DHT22;6283;51.330;12.374;2022-12-05T11:24:34;4.40;1.00
12438;DHT22;6283;51.330;12.374;2022-12-05T11:27:36;4.60;1.00
12438;DHT22;6283;51.330;12.374;2022-12-05T11:30:15;4.70;1.00
12438;DHT22;6283;51.330;12.374;2022-12-05T11:32:43;4.70;1.00
12438;DHT22;6283;51.330;12.374;2022-12-05T11:37:54;4.40;1.00
12438;DHT22;6283;51.330;12.374;2022-12-05T11:45:43;4.40;1.00
12438;DHT22;6283;51.330;12.374;2022-12-05T11:48:24;4.50;1.00
12438;DHT22;6283;51.330;12.374;2022-12-05T11:57:14;4.30;1.00
12438;DHT22;6283;51.330;12.374;2022-12-05T12:08:27;4.40;1.00
12438;DHT22;6283;51.330;12.374;2022-12-05T12:11:27;4.40;1.00
12438;DHT22;6283;51.330;12.374;2022-12-05T12:23:17;4.60;1.00
12438;DHT22;6283;51.330;12.374;2022-12-05T12:28:54;4.60;1.00
12438;DHT22;6283;51.330;12.374;2022-12-05T12:31:37;4.60;1.00
12438;DHT22;6283;51.330;12.374;2022-12-05T12:39:57;4.60;1.00
12438;DHT22;6283;51.330;12.374;2022-12-05T12:42:27;4.50;1.00
12438;DHT22;6283;51.330;12.374;2022-12-05T12:47:53;4.70;1.00
12438;DHT22;6283;51.330;12.374;2022-12-05T12:50:23;4.70;1.00
12438;DHT22;6283;51.330;12.374;2022-12-05T12:53:12;4.70;1.00
12438;DHT22;6283;51.330;12.374;2022-12-05T13:01:40;4.50;1.00
12438;DHT22;6283;51.330;12.374;2022-12-05T13:04:09;4.50;1.00
12438;DHT22;6283;51.330;12.374;2022-12-05T13:06:57;4.50;1.00
12438;DHT22;6283;51.330;12.374;2022-12-05T13:09:37;4.80;1.00
12438;DHT22;6283;51.330;12.374;2022-12-05T13:12:11;4.60;1.00
12438;DHT22;6283;51.330;12.374;2022-12-05T13:14:39;4.60;1.00
12438;DHT22;6283;51.330;12.374;2022-12-05T13:17:09;4.70;1.00
12438;DHT22;6283;51.330;12.374;2022-12-05T13:19:47;4.70;1.00
12438;DHT22;6283;51.330;12.374;2022-12-05T13:22:13;4.40;1.00
12438;DHT22;6283;51.330;12.374;2022-12-05T13:24:39;4.60;1.00
12438;DHT22;6283;51.330;12.374;2022-12-05T13:27:08;4.50;1.00
12438;DHT22;6283;51.330;12.374;2022-12-05T13:29:42;4.50;1.00
12438;DHT22;6283;51.330;12.374;2022-12-05T13:34:52;4.40;1.00
12438;DHT22;6283;51.330;12.374;2022-12-05T13:37:22;4.20;1.00
12438;DHT22;6283;51.330;12.374;2022-12-05T13:43:03;4.40;1.00
12438;DHT22;6283;51.330;12.374;2022-12-05T13:45:30;4.60;1.00
12438;DHT22;6283;51.330;12.374;2022-12-05T13:52:55;4.40;1.00
12438;DHT22;6283;51.330;12.374;2022-12-05T13:58:01;4.60;1.00
12438;DHT22;6283;51.330;12.374;2022-12-05T14:00:33;4.40;1.00
12438;DHT22;6283;51.330;12.374;2022-12-05T14:03:17;4.60;1.00
12438;DHT22;6283;51.330;12.374;2022-12-05T14:06:02;4.60;1.00
12438;DHT22;6283;51.330;12.374;2022-12-05T14:15:52;4.50;1.00
12438;DHT22;6283;51.330;12.374;2022-12-05T14:29:07;4.50;1.00
12438;DHT22;6283;51.330;12.374;2022-12-05T14:42:00;4.60;1.00
12438;DHT22;6283;51.330;12.374;2022-12-05T14:44:28;4.50;1.00
12438;DHT22;6283;51.330;12.374;2022-12-05T14:47:03;4.30;1.00
12438;DHT22;6283;51.330;12.374;2022-12-05T14:52:25;4.30;1.00
12438;DHT22;6283;51.330;12.374;2022-12-05T14:55:02;4.20;1.00
12438;DHT22;6283;51.330;12.374;2022-12-05T14:57:29;4.50;1.00
12438;DHT22;6283;51.330;12.374;2022-12-05T15:00:06;4.60;1.00
12438;DHT22;6283;51.330;12.374;2022-12-05T15:02:36;4.30;1.00
12438;DHT22;6283;51.330;12.374;2022-12-05T15:05:21;4.10;1.00
12438;DHT22;6283;51.330;12.374;2022-12-05T15:07:49;4.20;1.00
12438;DHT22;6283;51.330;12.374;2022-12-05T15:10:28;4.40;1.00
12438;DHT22;6283;51.330;12.374;2022-12-05T15:13:09;4.40;1.00
12438;DHT22;6283;51.330;12.374;2022-12-05T15:15:42;4.60;1.00
12438;DHT22;6283;51.330;12.374;2022-12-05T15:23:44;4.60;1.00
12438;DHT22;6283;51.330;12.374;2022-12-05T15:26:24;4.60;1.00
12438;DHT22;6283;51.330;12.374;2022-12-05T15:31:55;4.60;1.00
12438;DHT22;6283;51.330;12.374;2022-12-05T15:37:24;4.20;1.00
12438;DHT22;6283;51.330;12.374;2022-12-05T15:40:01;4.50;1.00
12438;DHT22;6283;51.330;12.374;2022-12-05T15:43:20;4.30;1.00
12438;DHT22;6283;51.330;12.374;2022-12-05T15:47:50;4.70;1.00
12438;DHT22;6283;51.330;12.374;2022-12-05T15:58:29;4.30;1.00
12438;DHT22;6283;51.330;12.374;2022-12-05T16:01:16;4.50;1.00
12438;DHT22;6283;51.330;12.374;2022-12-05T16:06:23;4.30;1.00
12438;DHT22;6283;51.330;12.374;2022-12-05T16:08:51;4.20;1.00
12438;DHT22;6283;51.330;12.374;2022-12-05T16:11:17;4.20;1.00
12438;DHT22;6283;51.330;12.374;2022-12-05T16:13:48;4.30;1.00
12438;DHT22;6283;51.330;12.374;2022-12-05T16:16:18;4.10;1.00
12438;DHT22;6283;51.330;12.374;2022-12-05T16:18:52;4.30;1.00
12438;DHT22;6283;51.330;12.374;2022-12-05T16:24:12;4.30;1.00
12438;DHT22;6283;51.330;12.374;2022-12-05T16:26:40;3.90;1.00
12438;DHT22;6283;51.330;12.374;2022-12-05T16:29:23;4.10;1.00
12438;DHT22;6283;51.330;12.374;2022-12-05T16:31:53;4.10;1.00
12438;DHT22;6283;51.330;12.374;2022-12-05T16:34:19;3.90;1.00
12438;DHT22;6283;51.330;12.374;2022-12-05T16:36:46;4.20;1.00
12438;DHT22;6283;51.330;12.374;2022-12-05T16:39:14;3.90;1.00
12438;DHT22;6283;51.330;12.374;2022-12-05T16:41:40;4.10;1.00
12438;DHT22;6283;51.330;12.374;2022-12-05T16:44:52;3.80;1.00
12438;DHT22;6283;51.330;12.374;2022-12-05T16:47:25;3.90;1.00
12438;DHT22;6283;51.330;12.374;2022-12-05T16:52:48;3.70;1.00
12438;DHT22;6283;51.330;12.374;2022-12-05T16:55:15;3.80;1.00
12438;DHT22;6283;51.330;12.374;2022-12-05T16:57:40;3.70;1.00
12438;DHT22;6283;51.330;12.374;2022-12-05T17:00:12;3.70;1.00
12438;DHT22;6283;51.330;12.374;2022-12-05T17:02:38;4.00;1.00
12438;DHT22;6283;51.330;12.374;2022-12-05T17:05:12;3.80;1.00
12438;DHT22;6283;51.330;12.374;2022-12-05T17:07:38;3.80;1.00
12438;DHT22;6283;51.330;12.374;2022-12-05T17:10:04;3.90;1.00
12438;DHT22;6283;51.330;12.374;2022-12-05T17:12:30;3.90;1.00
12438;DHT22;6283;51.330;12.374;2022-12-05T17:14:56;4.40;1.00
12438;DHT22;6283;51.330;12.374;2022-12-05T17:17:21;4.20;1.00
12438;DHT22;6283;51.330;12.374;2022-12-05T17:19:47;4.10;1.00
12438;DHT22;6283;51.330;12.374;2022-12-05T17:22:13;4.10;1.00
12438;DHT22;6283;51.330;12.374;2022-12-05T17:24:40;4.50;1.00
12438;DHT22;6283;51.330;12.374;2022-12-05T17:27:09;4.30;1.00
12438;DHT22;6283;51.330;12.374;2022-12-05T17:29:36;4.40;1.00
12438;DHT22;6283;51.330;12.374;2022-12-05T17:32:02;4.50;1.00
12438;DHT22;6283;51.330;12.374;2022-12-05T17:34:28;4.50;1.00
12438;DHT22;6283;51.330;12.374;2022-12-05T17:36:54;4.40;1.00
12438;DHT22;6283;51.330;12.374;2022-12-05T17:39:19;4.20;1.00
12438;DHT22;6283;51.330;12.374;2022-12-05T17:41:45;4.60;1.00
12438;DHT22;6283;51.330;12.374;2022-12-05T17:44:12;4.50;1.00
12438;DHT22;6283;51.330;12.374;2022-12-05T17:46:40;4.60;1.00
12438;DHT22;6283;51.330;12.374;2022-12-05T17:49:11;4.20;1.00
12438;DHT22;6283;51.330;12.374;2022-12-05T17:51:37;4.60;1.00
12438;DHT22;6283;51.330;12.374;2022-12-05T17:54:03;4.40;1.00
12438;DHT22;6283;51.330;12.374;2022-12-05T17:56:28;4.40;1.00
12438;DHT22;6283;51.330;12.374;2022-12-05T17:58:54;4.20;1.00
12438;DHT22;6283;51.330;12.374;2022-12-05T18:01:19;4.10;1.00
12438;DHT22;6283;51.330;12.374;2022-12-05T18:03:46;4.30;1.00
12438;DHT22;6283;51.330;12.374;2022-12-05T18:06:12;4.20;1.00
12438;DHT22;6283;51.330;12.374;2022-12-05T18:08:38;4.50;1.00
12438;DHT22;6283;51.330;12.374;2022-12-05T18:11:04;4.60;1.00
12438;DHT22;6283;51.330;12.374;2022-12-05T18:13:30;4.60;1.00
12438;DHT22;6283;51.330;12.374;2022-12-05T18:15:56;4.50;1.00
12438;DHT22;6283;51.330;12.374;2022-12-05T18:18:22;4.50;1.00
12438;DHT22;6283;51.330;12.374;2022-12-05T18:20:48;4.20;1.00
12438;DHT22;6283;51.330;12.374;2022-12-05T18:23:13;4.30;1.00
12438;DHT22;6283;51.330;12.374;2022-12-05T18:25:39;4.50;1.00
12438;DHT22;6283;51.330;12.374;2022-12-05T18:28:05;4.40;1.00
12438;DHT22;6283;51.330;12.374;2022-12-05T18:30:31;4.50;1.00
12438;DHT22;6283;51.330;12.374;2022-12-05T18:32:57;4.60;1.00
12438;DHT22;6283;51.330;12.374;2022-12-05T18:35:23;4.60;1.00
12438;DHT22;6283;51.330;12.374;2022-12-05T18:38:05;4.40;1.00
12438;DHT22;6283;51.330;12.374;2022-12-05T18:40:31;4.60;1.00
12438;DHT22;6283;51.330;12.374;2022-12-05T18:42:57;4.50;1.00
12438;DHT22;6283;51.330;12.374;2022-12-05T18:45:22;4.60;1.00
12438;DHT22;6283;51.330;12.374;2022-12-05T18:47:48;4.60;1.00
12438;DHT22;6283;51.330;12.374;2022-12-05T18:50:14;4.70;1.00
12438;DHT22;6283;51.330;12.374;2022-12-05T18:52:39;4.60;1.00
12438;DHT22;6283;51.330;12.374;2022-12-05T18:55:05;4.60;1.00
12438;DHT22;6283;51.330;12.374;2022-12-05T18:57:31;4.70;1.00
12438;DHT22;6283;51.330;12.374;2022-12-05T18:59:56;4.60;1.00
12438;DHT22;6283;51.330;12.374;2022-12-05T19:02:22;4.70;1.00
12438;DHT22;6283;51.330;12.374;2022-12-05T19:04:48;4.70;1.00
12438;DHT22;6283;51.330;12.374;2022-12-05T19:07:14;4.80;1.00
12438;DHT22;6283;51.330;12.374;2022-12-05T19:09:40;4.70;1.00
12438;DHT22;6283;51.330;12.374;2022-12-05T19:12:05;4.70;1.00
12438;DHT22;6283;51.330;12.374;2022-12-05T19:14:31;4.70;1.00
12438;DHT22;6283;51.330;12.374;2022-12-05T19:16:57;4.50;1.00
12438;DHT22;6283;51.330;12.374;2022-12-05T19:19:23;4.60;1.00
12438;DHT22;6283;51.330;12.374;2022-12-05T19:21:49;4.70;1.00
12438;DHT22;6283;51.330;12.374;2022-12-05T19:24:16;4.60;1.00
12438;DHT22;6283;51.330;12.374;2022-12-05T19:26:43;4.70;1.00
12438;DHT22;6283;51.330;12.374;2022-12-05T19:29:13;4.60;1.00
12438;DHT22;6283;51.330;12.374;2022-12-05T19:31:39;4.70;1.00
12438;DHT22;6283;51.330;12.374;2022-12-05T19:34:06;4.50;1.00
12438;DHT22;6283;51.330;12.374;2022-12-05T19:36:43;4.50;1.00
12438;DHT22;6283;51.330;12.374;2022-12-05T19:41:40;4.70;1.00